ESFO2: Salt Fork Red River nr Elmer, OK

Data processed at Sun Sep 23 2018 22:02


All information presented herein is the property of the government of the United States of America and may be revised or deleted at any time without prior notice.
Dissemination of this information without the expressed written consent of the Public Affairs Office, Tulsa District U.S. Army Corps of Engineers is strictly prohibited.
These data are gathered electronically and, as presented, have not undergone any form of quality control. These data are not guaranteed to be valid or correct.
Go to home page.
Go to station list.
Go to home page.

Upstream stations:

Downstream station:
Previous Day
Next Day
Current Day
    
SHEF ID:       ESFO2     Salt Fork Red River near Elmer,
STATION TYPE:  

                STAGE  RIV-FLOW  BAT-LOAD
                   ft       cfs      volt
              Ccp-Rev   Ccp-Rev   Ccp-Rev
(US/Central)
09/23 00:00      8.53       344     12.09
09/23 01:00      8.43       321     12.09
09/23 02:00      8.32       296     12.09
09/23 03:00      8.21       272     12.09
09/23 04:00      8.10       250     12.09
09/23 05:00      7.99       230     12.09
09/23 06:00      7.89       212     12.01
09/23 07:00      7.81       197     12.01
09/23 08:00      7.73       183     12.01
09/23 09:00      7.64       167     12.01
09/23 10:00      7.57       155     12.01
09/23 11:00      7.51       145     12.09
09/23 12:00      7.44       133     12.17
09/23 13:00      7.38       124     12.41
09/23 14:00      7.33       117     12.65
09/23 15:00      7.29       111     12.57
09/23 16:00      7.23       103     12.41
09/23 17:00      7.19        98     12.41
09/23 18:00      7.15        93     11.93
09/23 19:00      7.11        89     11.77
09/23 20:00      7.10        88     12.17
09/23 21:00      7.07        84     12.17
09/23 22:00      ----      ----      ----
09/23 23:00      ----      ----      ----